createdAt,value
2023-04-26T00:01:20.612Z,4.60
2023-04-26T00:03:47.465Z,4.17
2023-04-26T00:06:14.783Z,4.30
2023-04-26T00:08:43.268Z,4.30
2023-04-26T00:11:10.399Z,4.90
2023-04-26T00:13:39.574Z,5.80
2023-04-26T00:16:06.812Z,5.10
2023-04-26T00:18:33.483Z,5.40
2023-04-26T00:21:00.162Z,5.17
2023-04-26T00:23:27.091Z,4.90
2023-04-26T00:25:53.746Z,4.97
2023-04-26T00:28:20.452Z,5.13
2023-04-26T00:30:48.934Z,5.07
2023-04-26T00:33:15.764Z,5.90
2023-04-26T00:35:42.726Z,5.70
2023-04-26T00:38:09.794Z,6.50
2023-04-26T00:40:36.732Z,5.10
2023-04-26T00:43:05.423Z,5.97
2023-04-26T00:45:32.354Z,6.70
2023-04-26T00:48:00.844Z,4.70
2023-04-26T00:50:27.996Z,5.63
2023-04-26T00:52:56.053Z,5.73
2023-04-26T00:55:23.333Z,5.33
2023-04-26T00:57:50.064Z,6.03
2023-04-26T01:00:16.949Z,4.70
2023-04-26T01:02:44.497Z,4.90
2023-04-26T01:05:11.507Z,4.97
2023-04-26T01:07:41.068Z,5.83
2023-04-26T01:10:09.530Z,5.63
2023-04-26T01:12:37.467Z,5.13
2023-04-26T01:15:05.576Z,5.60
2023-04-26T01:17:32.306Z,6.23
2023-04-26T01:19:59.026Z,5.70
2023-04-26T01:22:28.648Z,5.43
2023-04-26T01:24:56.514Z,5.03
2023-04-26T01:27:23.187Z,5.17
2023-04-26T01:29:49.887Z,6.67
2023-04-26T01:32:16.733Z,5.23
2023-04-26T01:34:43.515Z,5.13
2023-04-26T01:37:13.233Z,5.37
2023-04-26T01:39:39.926Z,4.80
2023-04-26T01:42:06.585Z,4.70
2023-04-26T01:44:33.274Z,5.23
2023-04-26T01:47:01.601Z,5.87
2023-04-26T01:49:31.372Z,4.90
2023-04-26T01:51:58.803Z,5.70
2023-04-26T01:54:25.625Z,5.57
2023-04-26T01:56:55.501Z,5.27
2023-04-26T01:59:22.231Z,4.30
2023-04-26T02:01:49.113Z,6.07
2023-04-26T02:04:15.793Z,5.07
2023-04-26T02:06:45.355Z,5.87
2023-04-26T02:09:12.279Z,4.67
2023-04-26T02:11:40.402Z,4.33
2023-04-26T02:14:07.088Z,5.13
2023-04-26T02:16:33.917Z,3.90
2023-04-26T02:19:00.717Z,5.63
2023-04-26T02:21:28.403Z,5.43
2023-04-26T02:23:55.125Z,7.97
2023-04-26T02:26:21.860Z,5.70
2023-04-26T02:28:48.610Z,4.97
2023-04-26T02:31:15.383Z,7.37
2023-04-26T02:33:42.104Z,5.00
2023-04-26T02:36:09.582Z,5.30
2023-04-26T02:38:36.783Z,5.23
2023-04-26T02:41:05.213Z,5.00
2023-04-26T02:43:32.986Z,4.70
2023-04-26T02:46:01.159Z,4.70
2023-04-26T02:48:28.279Z,4.73
2023-04-26T02:50:55.120Z,5.17
2023-04-26T02:53:22.302Z,4.50
2023-04-26T02:55:49.111Z,5.93
2023-04-26T02:58:15.834Z,5.10
2023-04-26T03:00:47.305Z,4.77
2023-04-26T03:03:14.990Z,5.37
2023-04-26T03:05:41.905Z,5.53
2023-04-26T03:08:09.204Z,4.97
2023-04-26T03:10:36.570Z,4.43
2023-04-26T03:13:04.795Z,6.83
2023-04-26T03:15:31.700Z,5.93
2023-04-26T03:18:01.605Z,5.03
2023-04-26T03:20:28.314Z,4.83
2023-04-26T03:22:57.224Z,5.23
2023-04-26T03:25:23.915Z,5.77
2023-04-26T03:27:50.558Z,6.17
2023-04-26T03:30:18.013Z,4.77
2023-04-26T03:32:45.200Z,6.33
2023-04-26T03:35:12.104Z,4.97
2023-04-26T03:37:41.878Z,7.30
2023-04-26T03:40:12.460Z,6.27
2023-04-26T03:42:39.375Z,5.70
2023-04-26T03:45:06.792Z,4.90
2023-04-26T03:47:35.174Z,4.43
2023-04-26T03:50:01.948Z,5.50
2023-04-26T03:52:28.681Z,5.07
2023-04-26T03:54:55.384Z,5.77
2023-04-26T03:57:22.229Z,4.27
2023-04-26T03:59:50.243Z,6.07
2023-04-26T04:02:19.365Z,4.50
2023-04-26T04:04:46.557Z,6.63
2023-04-26T04:07:16.802Z,4.93
2023-04-26T04:09:43.492Z,5.20
2023-04-26T04:12:10.205Z,5.77
2023-04-26T04:14:37.158Z,5.17
2023-04-26T04:17:04.010Z,5.47
2023-04-26T04:19:38.720Z,5.30
2023-04-26T04:22:05.807Z,8.00
2023-04-26T04:24:34.344Z,5.77
2023-04-26T04:27:01.613Z,5.90
2023-04-26T04:29:28.310Z,5.27
2023-04-26T04:31:55.732Z,3.77
2023-04-26T04:34:23.936Z,4.07
2023-04-26T04:36:51.124Z,5.03
2023-04-26T04:39:17.941Z,4.67
2023-04-26T04:41:48.388Z,5.57
2023-04-26T04:44:17.635Z,4.80
2023-04-26T04:46:44.813Z,5.50
2023-04-26T04:49:12.675Z,5.57
2023-04-26T04:51:39.732Z,6.30
2023-04-26T04:54:24.891Z,6.13
2023-04-26T04:56:51.994Z,4.93
2023-04-26T04:59:19.213Z,4.07
2023-04-26T05:01:47.826Z,6.23
2023-04-26T05:04:15.851Z,7.53
2023-04-26T05:06:43.869Z,6.73
2023-04-26T05:09:11.497Z,5.07
2023-04-26T05:11:38.315Z,5.67
2023-04-26T05:14:07.184Z,6.60
2023-04-26T05:16:33.853Z,4.97
2023-04-26T05:19:02.496Z,7.03
2023-04-26T05:21:29.512Z,5.67
2023-04-26T05:23:56.812Z,7.53
2023-04-26T05:26:23.490Z,5.20
2023-04-26T05:29:10.953Z,7.23
2023-04-26T05:31:59.132Z,4.37
2023-04-26T05:34:41.791Z,5.70
2023-04-26T05:37:12.024Z,6.20
2023-04-26T05:39:38.675Z,6.10
2023-04-26T05:42:06.367Z,7.80
2023-04-26T05:44:33.239Z,3.77
2023-04-26T05:46:59.959Z,6.97
2023-04-26T05:49:27.071Z,5.80
2023-04-26T05:51:53.709Z,4.17
2023-04-26T05:54:20.444Z,7.13
2023-04-26T05:56:48.326Z,4.73
2023-04-26T05:59:15.032Z,3.73
2023-04-26T06:01:41.716Z,5.83
2023-04-26T06:04:08.993Z,5.13
2023-04-26T06:06:55.911Z,4.43
2023-04-26T06:09:22.677Z,7.20
2023-04-26T06:11:49.393Z,7.70
2023-04-26T06:14:29.272Z,5.30
2023-04-26T06:17:01.175Z,4.83
2023-04-26T06:19:30.274Z,5.13
2023-04-26T06:21:57.323Z,4.43
2023-04-26T06:24:27.244Z,5.33
2023-04-26T06:26:53.951Z,5.13
2023-04-26T06:29:21.906Z,4.00
2023-04-26T06:31:48.910Z,3.83
2023-04-26T06:34:16.301Z,4.63
2023-04-26T06:36:42.994Z,5.37
2023-04-26T06:39:11.405Z,7.77
2023-04-26T06:41:39.153Z,4.90
2023-04-26T06:44:06.077Z,5.87
2023-04-26T06:46:32.940Z,5.33
2023-04-26T06:49:01.615Z,6.03
2023-04-26T06:51:29.755Z,5.30
2023-04-26T06:53:59.073Z,5.10
2023-04-26T06:56:25.860Z,7.57
2023-04-26T06:59:19.025Z,4.33
2023-04-26T07:01:45.885Z,4.57
2023-04-26T07:04:12.808Z,4.93
2023-04-26T07:06:39.689Z,3.57
2023-04-26T07:09:06.466Z,4.97
2023-04-26T07:11:33.193Z,4.23
2023-04-26T07:13:59.910Z,5.33
2023-04-26T07:16:26.928Z,3.73
2023-04-26T07:18:53.928Z,4.80
2023-04-26T07:21:20.546Z,4.77
2023-04-26T07:23:47.187Z,3.83
2023-04-26T07:26:13.785Z,6.33
2023-04-26T07:28:40.565Z,4.77
2023-04-26T07:31:09.199Z,3.80
2023-04-26T07:33:37.092Z,6.47
2023-04-26T07:36:04.056Z,7.13
2023-04-26T07:38:30.948Z,4.07
2023-04-26T07:40:58.324Z,3.93
2023-04-26T07:43:26.458Z,4.23
2023-04-26T07:45:53.380Z,6.00
2023-04-26T07:48:20.093Z,4.73
2023-04-26T07:50:46.769Z,5.63
2023-04-26T07:53:13.455Z,2.37
2023-04-26T07:55:40.119Z,3.87
2023-04-26T07:58:06.772Z,3.90
2023-04-26T08:00:33.515Z,5.10
2023-04-26T08:03:00.414Z,3.77
2023-04-26T08:05:28.054Z,3.70
2023-04-26T08:07:54.795Z,4.37
2023-04-26T08:10:21.519Z,3.87
2023-04-26T08:12:48.097Z,3.30
2023-04-26T08:15:14.824Z,3.97
2023-04-26T08:17:43.136Z,3.43
2023-04-26T08:20:10.242Z,3.67
2023-04-26T08:22:36.946Z,2.90
2023-04-26T08:25:05.714Z,3.30
2023-04-26T08:27:34.500Z,2.87
2023-04-26T08:30:01.245Z,3.67
2023-04-26T08:32:27.960Z,3.60
2023-04-26T08:34:55.395Z,3.20
2023-04-26T08:37:22.403Z,3.97
2023-04-26T08:39:49.058Z,3.63
2023-04-26T08:42:17.160Z,3.23
2023-04-26T08:44:45.166Z,2.60
2023-04-26T08:47:25.863Z,3.63
2023-04-26T08:49:59.806Z,4.20
2023-04-26T08:52:31.487Z,3.63
2023-04-26T08:54:59.499Z,3.90
2023-04-26T08:57:26.808Z,4.60
2023-04-26T08:59:56.321Z,3.90
2023-04-26T09:02:23.762Z,3.07
2023-04-26T09:04:51.441Z,3.73
2023-04-26T09:07:24.240Z,3.90
2023-04-26T09:09:53.817Z,3.30
2023-04-26T09:12:21.402Z,3.33
2023-04-26T09:14:48.322Z,3.03
2023-04-26T09:17:28.232Z,3.97
2023-04-26T09:19:55.207Z,4.63
2023-04-26T09:22:35.825Z,4.30
2023-04-26T09:25:07.217Z,2.33
2023-04-26T09:27:39.375Z,3.00
2023-04-26T09:30:12.427Z,3.67
2023-04-26T09:33:03.091Z,5.73
2023-04-26T09:35:37.711Z,3.13
2023-04-26T09:38:14.774Z,5.33
2023-04-26T09:40:45.411Z,5.27
2023-04-26T09:43:14.352Z,3.97
2023-04-26T09:45:54.777Z,3.77
2023-04-26T09:48:28.779Z,2.90
2023-04-26T09:50:57.311Z,5.13
2023-04-26T09:53:38.971Z,3.40
2023-04-26T09:56:13.514Z,5.43
2023-04-26T09:58:58.918Z,1.97
2023-04-26T10:01:29.571Z,3.30
2023-04-26T10:04:07.385Z,2.90
2023-04-26T10:06:34.278Z,4.37
2023-04-26T10:09:01.996Z,4.30
2023-04-26T10:11:28.840Z,4.70
2023-04-26T10:13:55.805Z,4.47
2023-04-26T10:16:22.734Z,3.93
2023-04-26T10:18:51.183Z,3.30
2023-04-26T10:21:20.220Z,3.43
2023-04-26T10:23:49.006Z,2.43
2023-04-26T10:26:53.079Z,2.83
2023-04-26T10:29:20.962Z,3.83
2023-04-26T10:32:03.990Z,5.77
2023-04-26T10:34:32.429Z,2.87
2023-04-26T10:37:18.349Z,4.30
2023-04-26T10:39:46.635Z,3.53
2023-04-26T10:42:26.579Z,3.67
2023-04-26T10:45:00.807Z,3.17
2023-04-26T10:47:37.521Z,2.43
2023-04-26T10:50:11.471Z,3.30
2023-04-26T10:53:01.028Z,3.93
2023-04-26T10:55:41.835Z,4.20
2023-04-26T10:58:30.312Z,4.40
2023-04-26T11:01:18.229Z,4.43
2023-04-26T11:04:07.462Z,3.40
2023-04-26T11:06:47.514Z,2.77
2023-04-26T11:09:38.191Z,1.97
2023-04-26T11:12:12.546Z,3.03
2023-04-26T11:14:41.711Z,2.60
2023-04-26T11:17:09.836Z,2.87
2023-04-26T11:19:36.966Z,2.13
2023-04-26T11:22:06.895Z,1.93
2023-04-26T11:24:36.929Z,2.10
2023-04-26T11:27:10.958Z,2.60
2023-04-26T11:29:38.383Z,3.93
2023-04-26T11:32:05.330Z,3.03
2023-04-26T11:34:32.376Z,3.93
2023-04-26T11:36:59.388Z,2.73
2023-04-26T11:39:26.092Z,1.93
2023-04-26T11:41:57.405Z,2.33
2023-04-26T11:44:24.037Z,5.10
2023-04-26T11:46:50.915Z,3.30
2023-04-26T11:49:17.970Z,4.30
2023-04-26T11:51:47.818Z,4.53
2023-04-26T11:54:30.880Z,4.07
2023-04-26T11:56:58.552Z,2.17
2023-04-26T11:59:26.609Z,2.30
2023-04-26T12:01:53.492Z,2.60
2023-04-26T12:04:20.544Z,3.73
2023-04-26T12:06:47.420Z,3.03
2023-04-26T12:09:14.129Z,3.50
2023-04-26T12:11:40.871Z,3.30
2023-04-26T12:14:11.539Z,3.10
2023-04-26T12:16:38.426Z,3.23
2023-04-26T12:19:07.318Z,4.00
2023-04-26T12:21:41.536Z,2.60
2023-04-26T12:24:08.332Z,2.93
2023-04-26T12:26:44.958Z,3.57
2023-04-26T12:29:11.718Z,2.77
2023-04-26T12:31:40.570Z,4.93
2023-04-26T12:34:08.168Z,4.03
2023-04-26T12:36:35.238Z,2.17
2023-04-26T12:39:05.417Z,2.87
2023-04-26T12:41:32.219Z,3.23
2023-04-26T12:43:58.884Z,2.17
2023-04-26T12:46:26.208Z,1.60
2023-04-26T12:48:53.422Z,2.77
2023-04-26T12:51:20.069Z,3.27
2023-04-26T12:53:46.723Z,2.73
2023-04-26T12:56:13.368Z,4.00
2023-04-26T12:58:40.058Z,3.07
2023-04-26T13:01:06.745Z,3.37
2023-04-26T13:03:33.637Z,4.00
2023-04-26T13:06:00.349Z,3.10
2023-04-26T13:08:26.981Z,2.90
2023-04-26T13:10:53.623Z,3.60
2023-04-26T13:13:22.061Z,3.70
2023-04-26T13:15:53.328Z,2.63
2023-04-26T13:18:19.997Z,3.30
2023-04-26T13:20:47.947Z,2.17
2023-04-26T13:23:14.676Z,2.73
2023-04-26T13:25:41.544Z,3.30
2023-04-26T13:28:08.259Z,2.67
2023-04-26T13:30:35.076Z,2.07
2023-04-26T13:33:01.898Z,2.67
2023-04-26T13:35:28.610Z,1.93
2023-04-26T13:37:55.522Z,4.50
2023-04-26T13:40:22.788Z,2.43
2023-04-26T13:42:49.482Z,1.80
2023-04-26T13:45:17.614Z,1.90
2023-04-26T13:47:46.070Z,3.00
2023-04-26T13:50:13.021Z,4.00
2023-04-26T13:52:39.708Z,3.20
2023-04-26T13:55:06.911Z,3.83
2023-04-26T13:57:33.554Z,2.23
2023-04-26T14:00:00.213Z,3.00
2023-04-26T14:02:27.445Z,3.63
2023-04-26T14:04:54.423Z,3.07
2023-04-26T14:07:21.416Z,3.30
2023-04-26T14:09:48.241Z,3.00
2023-04-26T14:12:14.903Z,2.53
2023-04-26T14:14:41.565Z,2.87
2023-04-26T14:17:08.235Z,2.20
2023-04-26T14:19:34.897Z,2.60
2023-04-26T14:22:01.464Z,2.63
2023-04-26T14:24:28.127Z,2.63
2023-04-26T14:26:54.951Z,2.33
2023-04-26T14:29:21.732Z,3.50
2023-04-26T14:31:48.538Z,3.13
2023-04-26T14:34:15.168Z,2.10
2023-04-26T14:36:41.848Z,3.40
2023-04-26T14:39:08.483Z,4.03
2023-04-26T14:41:35.117Z,3.70
2023-04-26T14:44:01.723Z,2.70
2023-04-26T14:46:28.436Z,3.93
2023-04-26T14:48:55.480Z,4.13
2023-04-26T14:51:22.140Z,2.10
2023-04-26T14:53:48.770Z,2.97
2023-04-26T14:56:15.411Z,2.00
2023-04-26T14:58:42.048Z,3.30
2023-04-26T15:01:09.452Z,2.10
2023-04-26T15:03:36.505Z,2.70
2023-04-26T15:06:03.399Z,2.33
2023-04-26T15:08:30.143Z,2.73
2023-04-26T15:10:57.745Z,4.33
2023-04-26T15:13:24.480Z,2.77
2023-04-26T15:15:51.425Z,3.93
2023-04-26T15:18:18.230Z,1.77
2023-04-26T15:20:44.912Z,2.70
2023-04-26T15:23:11.631Z,2.33
2023-04-26T15:25:38.301Z,1.97
2023-04-26T15:28:05.282Z,2.53
2023-04-26T15:30:32.006Z,2.60
2023-04-26T15:32:58.904Z,3.57
2023-04-26T15:35:25.797Z,2.83
2023-04-26T15:37:54.044Z,2.63
2023-04-26T15:40:24.712Z,2.03
2023-04-26T15:42:52.093Z,2.27
2023-04-26T15:45:19.367Z,3.37
2023-04-26T15:47:46.444Z,3.13
2023-04-26T15:50:13.512Z,2.43
2023-04-26T15:52:40.899Z,2.00
2023-04-26T15:55:07.950Z,2.87
2023-04-26T15:57:34.802Z,2.47
2023-04-26T16:00:01.906Z,3.40
2023-04-26T16:02:31.259Z,2.70
2023-04-26T16:04:58.127Z,2.57
2023-04-26T16:07:24.857Z,2.53
2023-04-26T16:09:51.556Z,2.33
2023-04-26T16:12:18.188Z,3.10
2023-04-26T16:14:44.917Z,1.63
2023-04-26T16:17:11.656Z,3.43
2023-04-26T16:19:38.339Z,3.57
2023-04-26T16:22:05.051Z,2.17
2023-04-26T16:24:31.699Z,2.57
2023-04-26T16:26:58.609Z,3.93
2023-04-26T16:29:25.334Z,2.67
2023-04-26T16:31:52.795Z,2.37
2023-04-26T16:34:20.035Z,5.83
2023-04-26T16:36:46.859Z,3.17
2023-04-26T16:39:15.860Z,3.37
2023-04-26T16:41:42.871Z,3.07
2023-04-26T16:44:09.510Z,2.67
2023-04-26T16:46:36.463Z,2.33
2023-04-26T16:49:09.386Z,2.67
2023-04-26T16:51:37.401Z,3.33
2023-04-26T16:54:04.360Z,3.93
2023-04-26T16:56:32.205Z,2.57
2023-04-26T16:58:59.196Z,1.60
2023-04-26T17:01:26.179Z,2.90
2023-04-26T17:03:53.237Z,2.13
2023-04-26T17:06:20.428Z,2.37
2023-04-26T17:08:47.511Z,3.03
2023-04-26T17:11:15.522Z,3.17
2023-04-26T17:13:42.306Z,3.10
2023-04-26T17:16:09.632Z,4.47
2023-04-26T17:18:37.275Z,5.83
2023-04-26T17:21:07.250Z,8.07
2023-04-26T17:23:34.492Z,3.73
2023-04-26T17:26:02.024Z,2.83
2023-04-26T17:28:28.986Z,2.93
2023-04-26T17:30:55.658Z,3.37
2023-04-26T17:33:22.411Z,2.97
2023-04-26T17:35:49.244Z,3.67
2023-04-26T17:38:15.979Z,3.00
2023-04-26T17:40:42.665Z,3.73
2023-04-26T17:43:09.314Z,3.63
2023-04-26T17:45:36.066Z,2.60
2023-04-26T17:48:03.031Z,3.40
2023-04-26T17:50:30.362Z,4.30
2023-04-26T17:52:57.106Z,4.37
2023-04-26T17:55:23.930Z,3.43
2023-04-26T17:57:50.657Z,3.30
2023-04-26T18:00:17.854Z,3.63
2023-04-26T18:02:44.622Z,3.73
2023-04-26T18:05:11.847Z,3.33
2023-04-26T18:07:38.636Z,4.20
2023-04-26T18:10:06.620Z,3.17
2023-04-26T18:12:33.321Z,2.97
2023-04-26T18:14:59.979Z,3.50
2023-04-26T18:17:27.048Z,2.63
2023-04-26T18:19:53.777Z,4.40
2023-04-26T18:22:20.522Z,3.73
2023-04-26T18:24:47.244Z,2.67
2023-04-26T18:27:14.165Z,2.33
2023-04-26T18:29:41.478Z,2.87
2023-04-26T18:32:09.376Z,3.17
2023-04-26T18:34:36.053Z,2.70
2023-04-26T18:37:02.942Z,3.47
2023-04-26T18:39:30.397Z,5.40
2023-04-26T18:41:57.062Z,7.53
2023-04-26T18:44:23.734Z,4.20
2023-04-26T18:46:52.277Z,5.30
2023-04-26T18:49:19.061Z,4.60
2023-04-26T18:51:45.723Z,4.60
2023-04-26T18:54:12.420Z,3.17
2023-04-26T18:56:39.538Z,3.47
2023-04-26T18:59:06.212Z,4.80
2023-04-26T19:01:32.959Z,3.03
2023-04-26T19:04:00.063Z,2.87
2023-04-26T19:06:28.239Z,3.13
2023-04-26T19:08:54.888Z,3.13
2023-04-26T19:11:21.604Z,2.47
2023-04-26T19:13:48.211Z,3.63
2023-04-26T19:16:14.972Z,3.60
2023-04-26T19:18:41.945Z,3.53
2023-04-26T19:21:09.243Z,3.93
2023-04-26T19:23:36.487Z,2.80
2023-04-26T19:26:12.277Z,3.73
2023-04-26T19:28:39.361Z,4.17
2023-04-26T19:31:06.099Z,3.13
2023-04-26T19:33:32.829Z,5.30
2023-04-26T19:35:59.542Z,3.93
2023-04-26T19:38:26.278Z,3.87
2023-04-26T19:40:53.228Z,4.87
2023-04-26T19:43:20.086Z,4.60
2023-04-26T19:45:46.879Z,3.47
2023-04-26T19:48:13.675Z,4.57
2023-04-26T19:50:44.575Z,4.10
2023-04-26T19:53:13.185Z,3.57
2023-04-26T19:55:41.031Z,3.63
2023-04-26T19:58:08.383Z,4.00
2023-04-26T20:00:39.013Z,4.23
2023-04-26T20:03:06.455Z,3.33
2023-04-26T20:05:33.832Z,4.53
2023-04-26T20:08:00.868Z,5.93
2023-04-26T20:10:31.103Z,4.17
2023-04-26T20:12:58.791Z,3.27
2023-04-26T20:15:25.516Z,3.77
2023-04-26T20:17:52.601Z,3.57
2023-04-26T20:20:19.540Z,3.03
2023-04-26T20:22:46.278Z,5.33
2023-04-26T20:25:13.031Z,4.03
2023-04-26T20:27:39.677Z,4.93
2023-04-26T20:30:07.329Z,4.80
2023-04-26T20:32:34.049Z,3.53
2023-04-26T20:35:00.737Z,4.63
2023-04-26T20:37:27.774Z,3.80
2023-04-26T20:39:54.485Z,3.20
2023-04-26T20:42:22.080Z,3.73
2023-04-26T20:44:48.705Z,3.53
2023-04-26T20:47:15.788Z,4.13
2023-04-26T20:49:42.381Z,4.00
2023-04-26T20:52:09.063Z,3.87
2023-04-26T20:54:35.839Z,4.03
2023-04-26T20:57:03.921Z,5.40
2023-04-26T20:59:30.910Z,3.60
2023-04-26T21:01:57.828Z,3.63
2023-04-26T21:04:24.830Z,3.57
2023-04-26T21:06:51.685Z,6.43
2023-04-26T21:09:18.351Z,5.43
2023-04-26T21:11:44.996Z,2.87
2023-04-26T21:14:13.717Z,5.97
2023-04-26T21:16:40.671Z,4.47
2023-04-26T21:19:08.048Z,4.40
2023-04-26T21:21:35.143Z,6.57
2023-04-26T21:24:02.508Z,4.30
2023-04-26T21:26:29.197Z,5.53
2023-04-26T21:28:55.970Z,3.53
2023-04-26T21:31:22.744Z,4.43
2023-04-26T21:33:49.765Z,5.60
2023-04-26T21:36:16.494Z,3.90
2023-04-26T21:38:43.177Z,4.40
2023-04-26T21:41:09.785Z,3.23
2023-04-26T21:43:36.421Z,3.87
2023-04-26T21:46:03.474Z,5.40
2023-04-26T21:48:30.476Z,3.63
2023-04-26T21:50:57.164Z,4.80
2023-04-26T21:53:23.849Z,5.40
2023-04-26T21:55:54.003Z,3.97
2023-04-26T21:58:21.595Z,3.43
2023-04-26T22:00:48.750Z,4.73
2023-04-26T22:03:16.280Z,3.73
2023-04-26T22:05:43.157Z,5.00
2023-04-26T22:08:11.384Z,4.83
2023-04-26T22:10:38.122Z,4.90
2023-04-26T22:13:05.439Z,4.00
2023-04-26T22:15:32.384Z,8.60
2023-04-26T22:17:59.180Z,4.80
2023-04-26T22:20:26.507Z,4.67
2023-04-26T22:22:53.843Z,4.07
2023-04-26T22:25:21.118Z,4.80
2023-04-26T22:27:48.202Z,5.57
2023-04-26T22:30:24.977Z,5.70
2023-04-26T22:32:55.569Z,6.87
2023-04-26T22:35:23.593Z,5.60
2023-04-26T22:37:50.633Z,5.53
2023-04-26T22:40:17.617Z,8.40
2023-04-26T22:42:44.507Z,7.73
2023-04-26T22:45:11.975Z,6.67
2023-04-26T22:47:39.393Z,5.83
2023-04-26T22:50:07.449Z,7.70
2023-04-26T22:52:34.531Z,5.77
2023-04-26T22:55:01.377Z,6.30
2023-04-26T22:57:29.120Z,6.77
2023-04-26T22:59:55.793Z,5.07
2023-04-26T23:02:23.526Z,5.37
2023-04-26T23:04:50.434Z,6.23
2023-04-26T23:07:17.133Z,5.07
2023-04-26T23:09:43.870Z,3.90
2023-04-26T23:12:10.701Z,6.63
2023-04-26T23:14:37.906Z,4.70
2023-04-26T23:17:05.661Z,4.30
2023-04-26T23:19:33.230Z,4.73
2023-04-26T23:22:00.064Z,4.40
2023-04-26T23:24:27.067Z,4.67
2023-04-26T23:26:53.921Z,5.33
2023-04-26T23:29:20.616Z,3.73
2023-04-26T23:31:47.551Z,5.53
2023-04-26T23:34:14.301Z,5.70
2023-04-26T23:36:41.265Z,6.07
2023-04-26T23:39:08.935Z,5.43
2023-04-26T23:41:35.975Z,4.77
2023-04-26T23:44:02.736Z,4.40
2023-04-26T23:46:29.650Z,4.40
2023-04-26T23:48:56.347Z,4.57
2023-04-26T23:51:23.034Z,3.90
2023-04-26T23:53:49.701Z,4.17
2023-04-26T23:56:16.439Z,5.10
2023-04-26T23:58:43.148Z,4.20
